createdAt,value
2022-10-11T00:00:39.184Z,9.34
2022-10-11T00:03:41.508Z,9.39
2022-10-11T00:06:43.908Z,9.49
2022-10-11T00:09:46.640Z,9.59
2022-10-11T00:12:49.581Z,9.76
2022-10-11T00:15:52.244Z,9.67
2022-10-11T00:18:54.664Z,9.63
2022-10-11T00:21:57.030Z,9.57
2022-10-11T00:24:59.510Z,9.53
2022-10-11T00:28:01.905Z,9.47
2022-10-11T00:31:13.643Z,9.51
2022-10-11T00:34:18.097Z,9.58
2022-10-11T00:37:20.615Z,9.69
2022-10-11T00:40:23.028Z,9.80
2022-10-11T00:43:29.106Z,9.84
2022-10-11T00:46:31.875Z,9.99
2022-10-11T00:49:37.889Z,10.07
2022-10-11T00:52:49.902Z,10.12
2022-10-11T00:56:00.335Z,10.10
2022-10-11T00:59:06.427Z,10.11
2022-10-11T01:02:09.925Z,10.11
2022-10-11T01:05:32.209Z,10.10
2022-10-11T01:08:34.674Z,10.22
2022-10-11T01:11:41.188Z,10.09
2022-10-11T01:14:46.580Z,9.91
2022-10-11T01:18:09.172Z,9.87
2022-10-11T01:21:26.092Z,9.93
2022-10-11T01:24:43.484Z,10.11
2022-10-11T01:27:55.752Z,10.16
2022-10-11T01:31:04.788Z,10.13
2022-10-11T01:34:33.627Z,10.09
2022-10-11T01:37:53.730Z,10.09
2022-10-11T01:41:00.239Z,10.10
2022-10-11T01:44:05.380Z,10.11
2022-10-11T01:47:07.740Z,10.11
2022-10-11T01:50:46.276Z,10.12
2022-10-11T01:54:07.367Z,10.05
2022-10-11T01:57:28.237Z,10.00
2022-10-11T02:01:00.585Z,9.95
2022-10-11T02:04:37.603Z,9.92
2022-10-11T02:07:57.649Z,9.87
2022-10-11T02:11:20.230Z,9.82
2022-10-11T02:14:26.963Z,9.73
2022-10-11T02:17:35.650Z,9.62
2022-10-11T02:20:41.344Z,9.58
2022-10-11T02:23:53.463Z,9.48
2022-10-11T02:26:58.831Z,9.50
2022-10-11T02:30:04.115Z,9.44
2022-10-11T02:33:11.278Z,9.51
2022-10-11T02:36:55.619Z,9.31
2022-10-11T02:40:07.072Z,9.27
2022-10-11T02:43:17.973Z,9.33
2022-10-11T02:46:21.554Z,9.29
2022-10-11T02:49:23.980Z,9.30
2022-10-11T02:52:27.140Z,9.32
2022-10-11T02:55:29.497Z,9.35
2022-10-11T02:58:31.921Z,9.30
2022-10-11T03:01:34.389Z,9.16
2022-10-11T03:04:36.884Z,9.07
2022-10-11T03:07:39.238Z,9.01
2022-10-11T03:10:42.516Z,8.98
2022-10-11T03:13:44.939Z,8.89
2022-10-11T03:16:47.270Z,8.91
2022-10-11T03:19:49.859Z,8.77
2022-10-11T03:22:52.188Z,8.67
2022-10-11T03:25:54.621Z,8.63
2022-10-11T03:28:57.109Z,8.58
2022-10-11T03:31:59.545Z,8.55
2022-10-11T03:35:01.898Z,8.52
2022-10-11T03:38:04.334Z,8.48
2022-10-11T03:41:07.127Z,8.44
2022-10-11T03:44:09.466Z,8.42
2022-10-11T03:47:12.782Z,8.41
2022-10-11T03:50:15.170Z,8.40
2022-10-11T03:53:17.737Z,8.39
2022-10-11T03:56:20.100Z,8.39
2022-10-11T03:59:22.429Z,8.52
2022-10-11T04:02:25.085Z,8.48
2022-10-11T04:05:27.521Z,8.75
2022-10-11T04:08:29.986Z,8.64
2022-10-11T04:11:32.785Z,8.71
2022-10-11T04:14:35.170Z,8.77
2022-10-11T04:17:37.515Z,8.90
2022-10-11T04:20:40.091Z,8.83
2022-10-11T04:23:42.490Z,8.76
2022-10-11T04:26:44.886Z,8.72
2022-10-11T04:29:47.189Z,8.68
2022-10-11T04:32:49.567Z,8.64
2022-10-11T04:35:56.203Z,8.71
2022-10-11T04:38:58.684Z,8.78
2022-10-11T04:42:01.001Z,8.93
2022-10-11T04:45:03.683Z,8.86
2022-10-11T04:48:06.391Z,8.31
2022-10-11T04:51:08.854Z,7.87
2022-10-11T04:54:11.222Z,7.79
2022-10-11T04:57:13.550Z,7.78
2022-10-11T05:00:16.284Z,7.94
2022-10-11T05:03:18.600Z,7.98
2022-10-11T05:06:21.162Z,7.93
2022-10-11T05:09:24.060Z,7.89
2022-10-11T05:12:27.050Z,7.89
2022-10-11T05:15:29.695Z,7.92
2022-10-11T05:18:32.165Z,7.97
2022-10-11T05:21:46.447Z,8.03
2022-10-11T05:24:54.857Z,8.09
2022-10-11T05:27:57.638Z,8.20
2022-10-11T05:31:00.414Z,8.58
2022-10-11T05:34:02.989Z,8.53
2022-10-11T05:37:05.538Z,8.40
2022-10-11T05:40:08.807Z,8.46
2022-10-11T05:43:12.012Z,8.68
2022-10-11T05:46:15.265Z,8.81
2022-10-11T05:49:17.833Z,8.85
2022-10-11T05:52:21.554Z,8.82
2022-10-11T05:55:24.480Z,8.89
2022-10-11T05:58:27.212Z,9.00
2022-10-11T06:03:32.074Z,9.20
2022-10-11T06:06:53.251Z,9.30
2022-10-11T06:10:14.210Z,9.60
2022-10-11T06:13:35.885Z,9.59
2022-10-11T06:16:56.936Z,9.52
2022-10-11T06:20:18.028Z,9.57
2022-10-11T06:23:39.210Z,9.53
2022-10-11T06:27:00.484Z,9.57
2022-10-11T06:30:21.564Z,9.62
2022-10-11T06:33:42.472Z,9.63
2022-10-11T06:37:03.684Z,9.70
2022-10-11T06:40:24.523Z,9.83
2022-10-11T06:43:46.112Z,10.04
2022-10-11T06:47:07.766Z,10.24
2022-10-11T06:50:54.518Z,10.50
2022-10-11T06:54:10.191Z,10.81
2022-10-11T06:57:30.982Z,10.84
2022-10-11T07:00:51.879Z,10.76
2022-10-11T07:04:12.827Z,10.86
2022-10-11T07:07:33.592Z,11.34
2022-10-11T07:11:00.113Z,11.59
2022-10-11T07:14:21.140Z,12.73
2022-10-11T07:17:42.318Z,12.87
2022-10-11T07:21:04.454Z,13.06
2022-10-11T07:24:25.740Z,12.81
2022-10-11T07:27:46.540Z,12.65
2022-10-11T07:31:16.690Z,12.59
2022-10-11T07:34:37.629Z,12.55
2022-10-11T07:37:58.599Z,12.67
2022-10-11T07:41:19.911Z,12.71
2022-10-11T07:44:40.888Z,12.48
2022-10-11T07:48:01.853Z,12.78
2022-10-11T07:51:24.591Z,12.89
2022-10-11T07:54:48.726Z,12.91
2022-10-11T07:58:11.154Z,13.13
2022-10-11T08:01:33.189Z,13.29
2022-10-11T08:04:54.391Z,13.44
2022-10-11T08:08:15.753Z,13.57
2022-10-11T08:11:37.727Z,13.52
2022-10-11T08:14:58.937Z,13.68
2022-10-11T08:18:20.268Z,13.86
2022-10-11T08:21:41.404Z,13.98
2022-10-11T08:25:02.475Z,14.10
2022-10-11T08:28:23.221Z,14.20
2022-10-11T08:31:47.326Z,14.35
2022-10-11T08:35:08.636Z,14.58
2022-10-11T08:38:29.718Z,14.55
2022-10-11T08:42:11.329Z,14.59
2022-10-11T08:45:44.345Z,14.53
2022-10-11T08:49:07.545Z,14.23
2022-10-11T08:52:34.818Z,14.12
2022-10-11T08:55:56.080Z,14.48
2022-10-11T08:59:39.966Z,14.34
2022-10-11T09:03:29.760Z,14.60
2022-10-11T09:07:26.816Z,14.76
2022-10-11T09:10:48.157Z,15.14
2022-10-11T09:13:56.503Z,15.14
2022-10-11T09:17:37.562Z,15.43
2022-10-11T09:20:40.236Z,15.47
2022-10-11T09:23:56.715Z,15.58
2022-10-11T09:27:09.929Z,15.83
2022-10-11T09:30:14.883Z,15.85
2022-10-11T09:33:18.807Z,15.98
2022-10-11T09:36:34.311Z,16.13
2022-10-11T09:39:42.199Z,16.41
2022-10-11T09:42:44.843Z,16.65
2022-10-11T09:45:49.616Z,16.78
2022-10-11T09:48:56.271Z,16.90
2022-10-11T09:52:02.440Z,17.13
2022-10-11T09:55:05.315Z,17.15
2022-10-11T09:58:40.307Z,17.38
2022-10-11T10:01:42.782Z,17.41
2022-10-11T10:05:07.135Z,17.72
2022-10-11T10:08:09.727Z,17.86
2022-10-11T10:11:12.743Z,17.95
2022-10-11T10:14:21.968Z,18.30
2022-10-11T10:17:24.410Z,18.25
2022-10-11T10:20:36.146Z,18.54
2022-10-11T10:23:38.873Z,18.52
2022-10-11T10:26:41.359Z,18.52
2022-10-11T10:30:00.666Z,18.55
2022-10-11T10:33:10.916Z,18.82
2022-10-11T10:36:21.842Z,18.77
2022-10-11T10:39:33.325Z,18.79
2022-10-11T10:42:36.411Z,18.84
2022-10-11T10:45:56.641Z,18.62
2022-10-11T10:49:51.887Z,18.36
2022-10-11T10:52:55.470Z,18.34
2022-10-11T10:56:22.224Z,17.96
2022-10-11T11:00:05.897Z,17.79
2022-10-11T11:03:47.891Z,18.05
2022-10-11T11:06:57.210Z,18.32
2022-10-11T11:10:32.824Z,18.63
2022-10-11T11:14:12.056Z,18.59
2022-10-11T11:17:22.898Z,18.63
2022-10-11T11:20:59.830Z,18.61
2022-10-11T11:24:08.879Z,18.72
2022-10-11T11:27:40.973Z,18.71
2022-10-11T11:31:04.806Z,18.50
2022-10-11T11:34:45.783Z,18.50
2022-10-11T11:37:54.099Z,18.54
2022-10-11T11:41:09.183Z,18.59
2022-10-11T11:44:23.852Z,18.59
2022-10-11T11:47:36.531Z,18.47
2022-10-11T11:50:43.818Z,18.52
2022-10-11T11:54:19.316Z,18.60
2022-10-11T11:57:38.871Z,18.75
2022-10-11T12:01:03.240Z,18.44
2022-10-11T12:04:36.107Z,18.92
2022-10-11T12:07:58.669Z,18.83
2022-10-11T12:11:08.653Z,18.84
2022-10-11T12:14:41.501Z,19.13
2022-10-11T12:17:56.058Z,19.05
2022-10-11T12:21:08.590Z,19.15
2022-10-11T12:24:21.542Z,19.07
2022-10-11T12:27:43.236Z,19.07
2022-10-11T12:30:50.768Z,19.05
2022-10-11T12:34:15.067Z,19.00
2022-10-11T12:37:17.525Z,19.07
2022-10-11T12:40:41.972Z,19.08
2022-10-11T12:43:50.495Z,19.34
2022-10-11T12:46:57.733Z,19.40
2022-10-11T12:50:27.983Z,19.29
2022-10-11T12:53:33.380Z,19.12
2022-10-11T12:56:42.141Z,18.86
2022-10-11T12:59:45.572Z,18.75
2022-10-11T13:02:49.493Z,18.70
2022-10-11T13:05:56.160Z,18.68
2022-10-11T13:09:09.695Z,18.54
2022-10-11T13:12:19.470Z,18.49
2022-10-11T13:15:24.293Z,18.35
2022-10-11T13:18:27.178Z,18.37
2022-10-11T13:21:34.641Z,18.12
2022-10-11T13:24:39.645Z,17.82
2022-10-11T13:27:42.741Z,17.86
2022-10-11T13:30:48.628Z,17.68
2022-10-11T13:33:55.135Z,17.70
2022-10-11T13:36:58.618Z,17.64
2022-10-11T13:40:01.197Z,17.63
2022-10-11T13:43:05.808Z,17.48
2022-10-11T13:46:17.507Z,17.46
2022-10-11T13:49:29.323Z,17.40
2022-10-11T13:52:32.484Z,17.31
2022-10-11T13:55:47.663Z,17.10
2022-10-11T13:58:52.755Z,16.95
2022-10-11T14:02:01.271Z,16.85
2022-10-11T14:05:03.817Z,16.79
2022-10-11T14:08:19.554Z,16.73
2022-10-11T14:11:39.850Z,16.69
2022-10-11T14:14:43.407Z,16.66
2022-10-11T14:17:52.504Z,16.67
2022-10-11T14:20:54.907Z,16.66
2022-10-11T14:24:00.844Z,16.58
2022-10-11T14:27:05.777Z,16.53
2022-10-11T14:30:27.467Z,16.44
2022-10-11T14:33:30.224Z,16.34
2022-10-11T14:36:32.696Z,16.28
2022-10-11T14:39:35.342Z,16.23
2022-10-11T14:42:37.677Z,16.19
2022-10-11T14:45:40.125Z,16.08
2022-10-11T14:48:54.953Z,15.97
2022-10-11T14:51:59.388Z,15.91
2022-10-11T14:55:02.218Z,15.83
2022-10-11T14:58:06.399Z,15.81
2022-10-11T15:01:16.160Z,15.79
2022-10-11T15:04:24.224Z,15.71
2022-10-11T15:07:26.740Z,15.65
2022-10-11T15:10:35.991Z,15.60
2022-10-11T15:13:38.453Z,15.60
2022-10-11T15:16:41.385Z,15.53
2022-10-11T15:19:43.764Z,15.46
2022-10-11T15:22:46.161Z,15.38
2022-10-11T15:25:48.543Z,15.30
2022-10-11T15:28:52.297Z,15.21
2022-10-11T15:31:54.796Z,15.08
2022-10-11T15:34:57.210Z,14.98
2022-10-11T15:38:00.269Z,14.81
2022-10-11T15:41:02.831Z,14.67
2022-10-11T15:44:05.342Z,14.54
2022-10-11T15:47:09.038Z,14.39
2022-10-11T15:50:13.805Z,14.23
2022-10-11T15:53:19.103Z,14.10
2022-10-11T15:56:21.472Z,14.02
2022-10-11T15:59:23.826Z,13.92
2022-10-11T16:02:26.400Z,13.75
2022-10-11T16:05:29.159Z,13.71
2022-10-11T16:08:31.710Z,13.60
2022-10-11T16:11:34.312Z,13.67
2022-10-11T16:14:36.702Z,13.62
2022-10-11T16:17:39.195Z,13.51
2022-10-11T16:20:45.195Z,13.30
2022-10-11T16:23:47.630Z,13.20
2022-10-11T16:26:50.896Z,13.04
2022-10-11T16:29:53.941Z,12.86
2022-10-11T16:32:56.525Z,12.81
2022-10-11T16:36:18.861Z,12.69
2022-10-11T16:39:21.460Z,12.60
2022-10-11T16:42:24.048Z,12.57
2022-10-11T16:45:26.502Z,12.48
2022-10-11T16:48:28.940Z,12.29
2022-10-11T16:51:31.380Z,12.31
2022-10-11T16:54:33.860Z,12.23
2022-10-11T16:57:37.815Z,12.24
2022-10-11T17:00:42.678Z,12.27
2022-10-11T17:03:45.306Z,12.28
2022-10-11T17:06:47.899Z,12.37
2022-10-11T17:09:50.723Z,12.39
2022-10-11T17:12:55.117Z,12.43
2022-10-11T17:15:57.912Z,12.33
2022-10-11T17:19:00.872Z,12.36
2022-10-11T17:22:03.258Z,12.42
2022-10-11T17:25:07.002Z,12.52
2022-10-11T17:28:09.804Z,12.57
2022-10-11T17:31:12.161Z,12.63
2022-10-11T17:34:16.149Z,12.70
2022-10-11T17:37:18.725Z,12.87
2022-10-11T17:40:22.023Z,12.89
2022-10-11T17:43:24.882Z,12.94
2022-10-11T17:46:32.284Z,12.97
2022-10-11T17:49:34.810Z,12.93
2022-10-11T17:52:37.247Z,12.96
2022-10-11T17:55:43.742Z,12.93
2022-10-11T17:58:47.074Z,12.89
2022-10-11T18:01:50.282Z,12.87
2022-10-11T18:04:52.716Z,12.71
2022-10-11T18:07:55.691Z,12.59
2022-10-11T18:10:58.093Z,12.47
2022-10-11T18:14:00.577Z,12.34
2022-10-11T18:17:03.611Z,12.41
2022-10-11T18:20:06.626Z,12.42
2022-10-11T18:23:09.089Z,12.39
2022-10-11T18:26:16.591Z,12.29
2022-10-11T18:29:19.082Z,12.82
2022-10-11T18:32:21.488Z,13.02
2022-10-11T18:35:25.087Z,12.99
2022-10-11T18:38:27.731Z,12.81
2022-10-11T18:41:32.161Z,12.81
2022-10-11T18:44:34.686Z,12.63
2022-10-11T18:47:37.424Z,12.39
2022-10-11T18:50:40.434Z,12.15
2022-10-11T18:53:42.760Z,11.99
2022-10-11T18:56:45.292Z,11.93
2022-10-11T18:59:47.827Z,11.96
2022-10-11T19:02:51.002Z,11.76
2022-10-11T19:05:53.474Z,11.65
2022-10-11T19:09:04.888Z,11.52
2022-10-11T19:12:07.552Z,11.43
2022-10-11T19:15:11.451Z,11.37
2022-10-11T19:18:15.938Z,11.35
2022-10-11T19:21:22.912Z,11.35
2022-10-11T19:24:28.325Z,11.43
2022-10-11T19:27:30.683Z,11.91
2022-10-11T19:30:33.612Z,12.33
2022-10-11T19:33:36.756Z,12.39
2022-10-11T19:36:42.290Z,12.23
2022-10-11T19:39:44.677Z,12.16
2022-10-11T19:42:47.102Z,12.16
2022-10-11T19:45:49.491Z,12.05
2022-10-11T19:48:52.279Z,12.11
2022-10-11T19:51:55.467Z,12.28
2022-10-11T19:54:58.001Z,12.30
2022-10-11T19:58:03.406Z,12.29
2022-10-11T20:01:12.152Z,12.18
2022-10-11T20:04:33.098Z,12.30
2022-10-11T20:07:37.119Z,12.52
2022-10-11T20:10:39.733Z,12.89
2022-10-11T20:13:42.255Z,13.14
2022-10-11T20:16:44.657Z,13.24
2022-10-11T20:19:47.029Z,13.08
2022-10-11T20:22:49.437Z,13.07
2022-10-11T20:26:02.018Z,13.33
2022-10-11T20:29:04.535Z,13.49
2022-10-11T20:32:06.880Z,13.48
2022-10-11T20:35:10.444Z,13.53
2022-10-11T20:38:12.816Z,13.49
2022-10-11T20:41:18.675Z,13.38
2022-10-11T20:44:21.035Z,13.40
2022-10-11T20:47:23.361Z,13.40
2022-10-11T20:50:25.750Z,13.49
2022-10-11T20:53:29.366Z,13.50
2022-10-11T20:56:32.412Z,13.51
2022-10-11T20:59:34.751Z,13.58
2022-10-11T21:02:38.020Z,13.63
2022-10-11T21:05:40.951Z,13.58
2022-10-11T21:08:43.375Z,13.60
2022-10-11T21:11:46.027Z,13.65
2022-10-11T21:14:48.477Z,13.63
2022-10-11T21:17:51.420Z,13.52
2022-10-11T21:20:53.804Z,13.49
2022-10-11T21:24:01.511Z,13.52
2022-10-11T21:27:03.864Z,13.45
2022-10-11T21:30:06.680Z,13.46
2022-10-11T21:33:09.100Z,13.47
2022-10-11T21:36:17.614Z,13.54
2022-10-11T21:39:20.057Z,13.55
2022-10-11T21:42:27.136Z,13.60
2022-10-11T21:45:31.687Z,13.57
2022-10-11T21:48:34.232Z,13.62
2022-10-11T21:51:36.668Z,13.68
2022-10-11T21:54:39.255Z,13.71
2022-10-11T21:57:42.867Z,13.61
2022-10-11T22:00:46.907Z,13.65
2022-10-11T22:03:49.476Z,13.66
2022-10-11T22:06:51.855Z,13.56
2022-10-11T22:09:54.309Z,13.54
2022-10-11T22:12:56.978Z,13.42
2022-10-11T22:16:06.985Z,13.24
2022-10-11T22:19:09.459Z,13.10
2022-10-11T22:22:11.870Z,12.86
2022-10-11T22:25:14.261Z,12.69
2022-10-11T22:28:16.665Z,12.59
2022-10-11T22:31:20.321Z,12.60
2022-10-11T22:34:22.782Z,12.76
2022-10-11T22:37:25.127Z,13.07
2022-10-11T22:40:27.548Z,13.32
2022-10-11T22:43:30.065Z,13.49
2022-10-11T22:46:32.459Z,13.56
2022-10-11T22:49:34.950Z,13.62
2022-10-11T22:52:37.442Z,13.68
2022-10-11T22:55:40.314Z,13.71
2022-10-11T22:58:42.696Z,13.62
2022-10-11T23:01:45.043Z,13.69
2022-10-11T23:04:47.879Z,13.73
2022-10-11T23:07:50.568Z,13.83
2022-10-11T23:10:53.337Z,13.77
2022-10-11T23:13:55.693Z,13.76
2022-10-11T23:16:58.092Z,13.73
2022-10-11T23:20:00.617Z,13.72
2022-10-11T23:23:02.971Z,13.71
2022-10-11T23:26:12.141Z,13.70
2022-10-11T23:29:14.539Z,13.67
2022-10-11T23:32:16.980Z,13.65
2022-10-11T23:35:19.358Z,13.53
2022-10-11T23:38:21.954Z,13.51
2022-10-11T23:41:26.839Z,13.53
2022-10-11T23:44:29.198Z,13.60
2022-10-11T23:47:31.683Z,13.51
2022-10-11T23:50:34.739Z,13.52
2022-10-11T23:53:37.521Z,13.46
2022-10-11T23:56:40.017Z,13.32
2022-10-11T23:59:42.355Z,13.21
